Holly Ridge, NC (28445)

11:16 AM EDT on July 05, 2015 (GMT -0400)
ashe island estates | | Change Station
CLOSE
Current Station
Personal Weather Station
Location: North Topsail Beach, NC
Elevation: 10 ft
Nearby Weather Stations

Elev 10 ft 34.48 °N, 77.46 °W | Updated 2 minutes ago

Mostly Cloudy
Mostly Cloudy
80.3 °F
Feels Like 84 °F
N
10.0
Wind Variable Wind from South
Gusts 13.0 mph

Today
High -- | Low -- °F
--% Chance of Precip.
Yesterday
High -- | Low -- °F
Precip. -- in
6:02 AM 8:26 PM
Waning Gibbous, 84% visible
Pressure 30.15 in
Visibility 10.0 miles
Clouds Clear
Heat Index 84 °F
Dew Point 73 °F
Humidity 77%
Rainfall 0.00 in
Snow Depth Not available.
UV 9 out of 12
Pollen 3.00 out of 12
Air Quality Not available.
Flu Activity Not available.
METAR KNCA 051456Z AUTO 19007KT 10SM CLR 28/21 A3014 RMK AO2 SLP208 T02830206 50003

More Conditions Fewer Conditions

Pressure 30.15 in
Visibility 10.0 miles
Clouds Clear
Heat Index 84 °F
Dew Point 73 °F
Humidity 77%
Rainfall 0.00 in
Snow Depth Not available.
UV 9 out of 12
Pollen 3.00 out of 12
Air Quality Not available.
Flu Activity Not available.
METAR KNCA 051456Z AUTO 19007KT 10SM CLR 28/21 A3014 RMK AO2 SLP208 T02830206 50003

More Conditions Fewer Conditions

10-Day Weather Forecast

×

Almanac

Astronomy

Jul. 05, 2015 Rise Set
Actual Time
Civil Twilight
Nautical Twilight
Astronomical Twilight
Moon
Length of Visible Light
Length of Day
Tomorrow will be .
, % of the Moon is Illuminated

Today's Extremes

State Highs State Lows

Community

WunderPhotos

Upload Photos

1,835,282 photos uploaded!

WunderBlogs® & News

Nearby

Air Quality

  Air Quality AQ Index Pollutant
Not available.

Snow Depth

Station Depth Elevation

Earthquake Activity

City Distance Mag. Time & Date
Minimum magnitude displayed is 2.5.

Coastal Water Temperatures

Place Temperature

Stations

Nearby Weather Stations

Station Location Temp. Windchill Dew Point Humidity Wind Precip. Elev Updated Type